createdAt,value
2023-04-23T00:01:35.792Z,97257.48
2023-04-23T00:04:10.081Z,97256.45
2023-04-23T00:06:41.447Z,97250.80
2023-04-23T00:09:15.795Z,97250.48
2023-04-23T00:11:47.195Z,97250.63
2023-04-23T00:14:17.111Z,97255.99
2023-04-23T00:16:47.858Z,97255.77
2023-04-23T00:19:18.604Z,97257.63
2023-04-23T00:21:47.923Z,97258.80
2023-04-23T00:24:17.330Z,97258.55
2023-04-23T00:26:48.355Z,97257.80
2023-04-23T00:29:17.854Z,97256.14
2023-04-23T00:31:49.693Z,97252.16
2023-04-23T00:34:20.260Z,97253.89
2023-04-23T00:36:50.472Z,97258.98
2023-04-23T00:39:20.774Z,97256.24
2023-04-23T00:41:50.970Z,97258.70
2023-04-23T00:44:20.299Z,97257.59
2023-04-23T00:46:51.793Z,97255.22
2023-04-23T00:49:23.200Z,97257.59
2023-04-23T00:51:54.169Z,97257.77
2023-04-23T00:54:25.248Z,97259.64
2023-04-23T00:56:56.971Z,97257.79
2023-04-23T00:59:29.537Z,97258.86
2023-04-23T01:02:07.905Z,97256.11
2023-04-23T01:04:39.867Z,97256.19
2023-04-23T01:07:14.419Z,97253.39
2023-04-23T01:09:51.552Z,97257.30
2023-04-23T01:12:26.606Z,97256.03
2023-04-23T01:15:00.063Z,97255.27
2023-04-23T01:17:29.172Z,97255.11
2023-04-23T01:20:00.188Z,97255.17
2023-04-23T01:22:33.736Z,97253.52
2023-04-23T01:25:06.188Z,97257.55
2023-04-23T01:27:38.200Z,97261.41
2023-04-23T01:30:10.563Z,97257.73
2023-04-23T01:32:44.681Z,97261.38
2023-04-23T01:35:15.138Z,97262.90
2023-04-23T01:37:46.297Z,97260.56
2023-04-23T01:40:16.666Z,97264.80
2023-04-23T01:42:47.823Z,97265.85
2023-04-23T01:45:21.128Z,97261.58
2023-04-23T01:47:51.598Z,97260.92
2023-04-23T01:50:23.918Z,97263.21
2023-04-23T01:52:55.566Z,97263.44
2023-04-23T01:55:28.889Z,97264.31
2023-04-23T01:57:58.794Z,97263.58
2023-04-23T02:00:28.511Z,97262.48
2023-04-23T02:02:58.141Z,97267.09
2023-04-23T02:05:31.076Z,97270.49
2023-04-23T02:08:01.596Z,97270.98
2023-04-23T02:10:32.185Z,97268.56
2023-04-23T02:13:03.906Z,97268.27
2023-04-23T02:15:34.576Z,97262.27
2023-04-23T02:18:04.800Z,97261.59
2023-04-23T02:20:39.629Z,97261.45
2023-04-23T02:23:09.933Z,97260.02
2023-04-23T02:25:41.495Z,97256.66
2023-04-23T02:28:13.966Z,97254.48
2023-04-23T02:30:47.212Z,97257.77
2023-04-23T02:33:18.203Z,97253.15
2023-04-23T02:35:48.203Z,97254.43
2023-04-23T02:38:18.583Z,97254.55
2023-04-23T02:40:50.065Z,97249.02
2023-04-23T02:43:21.131Z,97244.36
2023-04-23T02:45:51.561Z,97245.79
2023-04-23T02:48:22.317Z,97244.89
2023-04-23T02:50:53.276Z,97239.71
2023-04-23T02:53:22.612Z,97235.06
2023-04-23T02:55:51.790Z,97231.77
2023-04-23T02:58:22.177Z,97227.94
2023-04-23T03:00:55.121Z,97232.33
2023-04-23T03:03:27.225Z,97231.96
2023-04-23T03:05:56.712Z,97236.27
2023-04-23T03:08:28.849Z,97242.50
2023-04-23T03:10:59.382Z,97243.95
2023-04-23T03:13:32.739Z,97243.30
2023-04-23T03:16:04.066Z,97238.92
2023-04-23T03:18:34.448Z,97240.81
2023-04-23T03:21:08.343Z,97239.63
2023-04-23T03:23:41.925Z,97237.73
2023-04-23T03:26:14.414Z,97238.54
2023-04-23T03:28:46.215Z,97239.36
2023-04-23T03:31:16.571Z,97235.98
2023-04-23T03:33:47.202Z,97239.17
2023-04-23T03:36:21.032Z,97244.34
2023-04-23T03:38:57.519Z,97244.70
2023-04-23T03:41:30.126Z,97247.73
2023-04-23T03:44:02.152Z,97252.19
2023-04-23T03:46:45.209Z,97254.23
2023-04-23T03:49:16.145Z,97256.35
2023-04-23T03:51:46.644Z,97258.05
2023-04-23T03:54:16.987Z,97258.88
2023-04-23T03:57:06.443Z,97260.06
2023-04-23T03:59:40.354Z,97259.30
2023-04-23T04:02:12.193Z,97261.71
2023-04-23T04:04:47.047Z,97261.51
2023-04-23T04:07:20.234Z,97266.15
2023-04-23T04:09:50.265Z,97270.31
2023-04-23T04:12:19.543Z,97269.81
2023-04-23T04:14:49.673Z,97266.70
2023-04-23T04:17:19.972Z,97268.98
2023-04-23T04:19:49.476Z,97271.53
2023-04-23T04:22:19.028Z,97270.98
2023-04-23T04:24:49.016Z,97271.92
2023-04-23T04:27:18.416Z,97275.27
2023-04-23T04:29:47.308Z,97279.26
2023-04-23T04:32:17.580Z,97279.72
2023-04-23T04:34:47.367Z,97280.20
2023-04-23T04:37:17.032Z,97286.13
2023-04-23T04:39:47.595Z,97289.30
2023-04-23T04:42:17.488Z,97288.59
2023-04-23T04:44:46.582Z,97286.84
2023-04-23T04:47:16.722Z,97288.30
2023-04-23T04:49:46.253Z,97292.45
2023-04-23T04:52:16.023Z,97295.91
2023-04-23T04:54:45.095Z,97297.48
2023-04-23T04:57:14.122Z,97292.20
2023-04-23T04:59:44.117Z,97293.41
2023-04-23T05:02:13.401Z,97295.77
2023-04-23T05:04:43.946Z,97292.79
2023-04-23T05:07:13.793Z,97289.38
2023-04-23T05:09:44.937Z,97290.68
2023-04-23T05:12:14.405Z,97291.52
2023-04-23T05:14:43.869Z,97290.16
2023-04-23T05:17:13.937Z,97289.34
2023-04-23T05:19:43.426Z,97285.97
2023-04-23T05:22:12.224Z,97291.13
2023-04-23T05:24:41.459Z,97291.56
2023-04-23T05:27:10.445Z,97287.70
2023-04-23T05:29:39.823Z,97286.37
2023-04-23T05:32:08.756Z,97287.75
2023-04-23T05:34:39.282Z,97286.88
2023-04-23T05:37:08.743Z,97289.85
2023-04-23T05:39:37.726Z,97289.69
2023-04-23T05:42:06.415Z,97290.50
2023-04-23T05:44:36.326Z,97290.70
2023-04-23T05:47:05.621Z,97294.29
2023-04-23T05:49:34.414Z,97288.98
2023-04-23T05:52:03.808Z,97288.36
2023-04-23T05:54:33.117Z,97290.91
2023-04-23T05:57:03.749Z,97293.41
2023-04-23T05:59:33.018Z,97292.68
2023-04-23T06:02:02.546Z,97294.63
2023-04-23T06:04:31.685Z,97294.86
2023-04-23T06:07:00.954Z,97299.21
2023-04-23T06:09:30.318Z,97299.40
2023-04-23T06:11:59.133Z,97298.89
2023-04-23T06:14:27.822Z,97293.52
2023-04-23T06:16:56.890Z,97295.16
2023-04-23T06:19:27.234Z,97291.71
2023-04-23T06:21:56.650Z,97288.37
2023-04-23T06:24:25.361Z,97290.76
2023-04-23T06:26:53.875Z,97289.41
2023-04-23T06:29:22.711Z,97288.38
2023-04-23T06:32:05.262Z,97288.95
2023-04-23T06:34:34.180Z,97290.88
2023-04-23T06:37:02.780Z,97290.38
2023-04-23T06:39:31.401Z,97289.58
2023-04-23T06:41:59.990Z,97288.21
2023-04-23T06:44:37.228Z,97289.18
2023-04-23T06:47:06.381Z,97291.51
2023-04-23T06:49:35.108Z,97294.42
2023-04-23T06:52:04.625Z,97293.73
2023-04-23T06:54:33.381Z,97295.98
2023-04-23T06:57:02.593Z,97293.27
2023-04-23T06:59:31.294Z,97296.63
2023-04-23T07:02:00.682Z,97299.66
2023-04-23T07:04:29.387Z,97298.98
2023-04-23T07:06:58.231Z,97301.66
2023-04-23T07:09:28.118Z,97295.62
2023-04-23T07:11:57.801Z,97298.20
2023-04-23T07:14:26.632Z,97296.79
2023-04-23T07:16:55.459Z,97298.61
2023-04-23T07:19:24.102Z,97292.91
2023-04-23T07:21:53.895Z,97295.93
2023-04-23T07:24:22.550Z,97295.10
2023-04-23T07:26:51.462Z,97301.60
2023-04-23T07:29:20.963Z,97298.64
2023-04-23T07:31:49.872Z,97304.00
2023-04-23T07:34:18.444Z,97303.42
2023-04-23T07:36:47.323Z,97303.24
2023-04-23T07:39:16.134Z,97304.40
2023-04-23T07:41:44.960Z,97307.42
2023-04-23T07:44:13.678Z,97305.06
2023-04-23T07:46:42.329Z,97304.05
2023-04-23T07:49:10.955Z,97299.46
2023-04-23T07:51:39.835Z,97293.92
2023-04-23T07:54:09.746Z,97299.41
2023-04-23T07:56:38.654Z,97299.45
2023-04-23T07:59:08.109Z,97299.23
2023-04-23T08:01:37.061Z,97298.94
2023-04-23T08:04:06.048Z,97296.72
2023-04-23T08:06:36.063Z,97297.25
2023-04-23T08:09:07.774Z,97291.78
2023-04-23T08:11:36.705Z,97289.67
2023-04-23T08:14:05.257Z,97290.90
2023-04-23T08:16:35.325Z,97286.58
2023-04-23T08:19:06.689Z,97284.14
2023-04-23T08:21:36.666Z,97289.05
2023-04-23T08:24:08.179Z,97286.37
2023-04-23T08:26:36.990Z,97279.43
2023-04-23T08:29:06.792Z,97279.53
2023-04-23T08:31:36.650Z,97279.23
2023-04-23T08:34:05.311Z,97276.39
2023-04-23T08:36:34.325Z,97273.09
2023-04-23T08:39:04.408Z,97271.36
2023-04-23T08:41:41.146Z,97271.14
2023-04-23T08:44:23.907Z,97266.65
2023-04-23T08:46:54.960Z,97265.01
2023-04-23T08:49:24.577Z,97264.08
2023-04-23T08:51:53.867Z,97261.30
2023-04-23T08:54:28.101Z,97264.64
2023-04-23T08:57:02.112Z,97262.31
2023-04-23T08:59:34.687Z,97261.71
2023-04-23T09:02:08.480Z,97255.91
2023-04-23T09:04:39.896Z,97253.72
2023-04-23T09:07:11.609Z,97251.59
2023-04-23T09:09:41.252Z,97249.27
2023-04-23T09:12:10.401Z,97247.48
2023-04-23T09:14:39.250Z,97242.66
2023-04-23T09:17:08.261Z,97245.80
2023-04-23T09:19:39.915Z,97240.96
2023-04-23T09:22:09.595Z,97235.84
2023-04-23T09:24:38.301Z,97235.97
2023-04-23T09:27:07.384Z,97236.12
2023-04-23T09:29:37.035Z,97236.73
2023-04-23T09:32:10.605Z,97228.94
2023-04-23T09:34:39.259Z,97223.84
2023-04-23T09:37:12.050Z,97223.86
2023-04-23T09:39:40.991Z,97223.61
2023-04-23T09:42:11.554Z,97219.88
2023-04-23T09:44:41.230Z,97214.99
2023-04-23T09:47:10.535Z,97212.64
2023-04-23T09:49:49.919Z,97207.23
2023-04-23T09:52:19.597Z,97207.91
2023-04-23T09:54:48.847Z,97211.11
2023-04-23T09:57:17.350Z,97209.14
2023-04-23T09:59:50.135Z,97206.02
2023-04-23T10:02:20.359Z,97204.54
2023-04-23T10:04:51.461Z,97201.03
2023-04-23T10:07:21.134Z,97193.27
2023-04-23T10:09:49.909Z,97190.95
2023-04-23T10:12:41.077Z,97185.35
2023-04-23T10:15:11.123Z,97180.32
2023-04-23T10:17:41.094Z,97177.60
2023-04-23T10:20:10.562Z,97178.58
2023-04-23T10:22:42.105Z,97175.02
2023-04-23T10:25:12.238Z,97167.91
2023-04-23T10:27:52.848Z,97168.11
2023-04-23T10:30:23.602Z,97159.38
2023-04-23T10:32:54.397Z,97162.18
2023-04-23T10:35:23.497Z,97156.05
2023-04-23T10:37:52.351Z,97156.98
2023-04-23T10:40:34.235Z,97156.55
2023-04-23T10:43:02.855Z,97154.95
2023-04-23T10:45:33.150Z,97151.41
2023-04-23T10:48:01.913Z,97143.83
2023-04-23T10:50:35.232Z,97142.02
2023-04-23T10:53:04.378Z,97129.31
2023-04-23T10:55:33.227Z,97127.76
2023-04-23T10:58:08.648Z,97129.88
2023-04-23T11:00:43.687Z,97125.20
2023-04-23T11:03:33.334Z,97118.42
2023-04-23T11:06:03.686Z,97119.55
2023-04-23T11:08:35.130Z,97119.16
2023-04-23T11:11:08.740Z,97114.47
2023-04-23T11:13:53.007Z,97110.84
2023-04-23T11:16:23.556Z,97112.79
2023-04-23T11:18:56.429Z,97109.80
2023-04-23T11:22:01.300Z,97106.23
2023-04-23T11:24:39.434Z,97110.87
2023-04-23T11:27:16.146Z,97111.39
2023-04-23T11:29:47.060Z,97112.18
2023-04-23T11:32:18.030Z,97107.94
2023-04-23T11:34:50.268Z,97104.35
2023-04-23T11:37:19.239Z,97105.31
2023-04-23T11:39:49.526Z,97104.52
2023-04-23T11:42:20.536Z,97101.73
2023-04-23T11:44:49.156Z,97102.85
2023-04-23T11:47:18.861Z,97100.03
2023-04-23T11:49:48.992Z,97100.98
2023-04-23T11:52:17.741Z,97098.77
2023-04-23T11:54:46.564Z,97097.97
2023-04-23T11:57:17.753Z,97095.98
2023-04-23T11:59:46.363Z,97094.59
2023-04-23T12:02:14.878Z,97095.76
2023-04-23T12:04:44.300Z,97092.40
2023-04-23T12:07:25.795Z,97090.79
2023-04-23T12:10:00.656Z,97087.65
2023-04-23T12:12:35.162Z,97082.83
2023-04-23T12:15:07.736Z,97081.90
2023-04-23T12:17:36.576Z,97080.52
2023-04-23T12:20:07.668Z,97073.96
2023-04-23T12:22:37.719Z,97070.66
2023-04-23T12:25:09.915Z,97069.48
2023-04-23T12:27:44.627Z,97066.02
2023-04-23T12:30:13.922Z,97067.14
2023-04-23T12:32:42.572Z,97064.48
2023-04-23T12:35:12.506Z,97068.27
2023-04-23T12:37:41.337Z,97066.48
2023-04-23T12:40:10.833Z,97063.58
2023-04-23T12:42:39.424Z,97059.83
2023-04-23T12:45:10.253Z,97059.20
2023-04-23T12:47:39.026Z,97053.54
2023-04-23T12:50:08.683Z,97048.34
2023-04-23T12:52:38.377Z,97046.88
2023-04-23T12:55:07.161Z,97045.95
2023-04-23T12:57:36.071Z,97041.63
2023-04-23T13:00:06.332Z,97042.37
2023-04-23T13:02:35.204Z,97033.68
2023-04-23T13:05:04.686Z,97035.64
2023-04-23T13:07:33.577Z,97032.85
2023-04-23T13:10:02.762Z,97030.28
2023-04-23T13:12:31.485Z,97028.10
2023-04-23T13:15:00.172Z,97026.16
2023-04-23T13:17:29.263Z,97022.73
2023-04-23T13:19:59.283Z,97021.68
2023-04-23T13:22:29.454Z,97019.68
2023-04-23T13:24:58.554Z,97019.86
2023-04-23T13:27:30.102Z,97019.59
2023-04-23T13:29:59.070Z,97014.14
2023-04-23T13:32:32.440Z,97013.33
2023-04-23T13:35:04.214Z,97013.52
2023-04-23T13:37:34.095Z,97011.37
2023-04-23T13:40:03.475Z,97008.34
2023-04-23T13:42:32.211Z,97006.85
2023-04-23T13:45:00.835Z,97006.68
2023-04-23T13:47:33.690Z,97007.24
2023-04-23T13:50:05.684Z,97005.54
2023-04-23T13:52:35.685Z,97004.29
2023-04-23T13:55:04.714Z,97003.38
2023-04-23T13:57:34.263Z,96995.77
2023-04-23T14:00:02.920Z,96992.16
2023-04-23T14:02:33.221Z,96988.20
2023-04-23T14:05:04.634Z,96989.80
2023-04-23T14:07:33.982Z,96988.73
2023-04-23T14:10:02.897Z,96990.51
2023-04-23T14:12:31.750Z,96992.16
2023-04-23T14:15:00.349Z,96989.92
2023-04-23T14:17:29.148Z,96990.34
2023-04-23T14:19:57.958Z,96989.80
2023-04-23T14:22:27.524Z,96991.80
2023-04-23T14:24:57.949Z,96994.81
2023-04-23T14:27:26.674Z,97000.69
2023-04-23T14:30:03.131Z,97000.52
2023-04-23T14:32:32.429Z,96998.77
2023-04-23T14:35:00.981Z,96997.42
2023-04-23T14:37:30.077Z,96999.70
2023-04-23T14:39:58.959Z,96999.48
2023-04-23T14:42:27.854Z,97008.48
2023-04-23T14:45:00.765Z,97016.77
2023-04-23T14:47:29.560Z,97016.06
2023-04-23T14:49:59.101Z,97015.83
2023-04-23T14:52:27.869Z,97025.26
2023-04-23T14:54:56.606Z,97013.71
2023-04-23T14:57:25.196Z,97013.11
2023-04-23T14:59:53.978Z,97023.22
2023-04-23T15:02:22.784Z,97033.73
2023-04-23T15:04:51.517Z,97021.58
2023-04-23T15:07:20.346Z,97014.80
2023-04-23T15:09:49.043Z,97012.90
2023-04-23T15:12:36.039Z,97013.73
2023-04-23T15:15:06.528Z,97013.98
2023-04-23T15:17:35.158Z,97020.06
2023-04-23T15:20:04.373Z,97018.23
2023-04-23T15:22:33.445Z,97010.52
2023-04-23T15:25:02.039Z,97006.31
2023-04-23T15:27:30.932Z,97004.52
2023-04-23T15:29:59.613Z,97009.30
2023-04-23T15:32:28.927Z,97013.32
2023-04-23T15:34:57.601Z,97020.98
2023-04-23T15:37:28.506Z,97023.00
2023-04-23T15:39:58.752Z,97020.39
2023-04-23T15:42:27.750Z,97022.11
2023-04-23T15:44:56.328Z,97019.77
2023-04-23T15:47:25.243Z,97015.19
2023-04-23T15:49:53.907Z,97016.55
2023-04-23T15:52:22.700Z,97016.29
2023-04-23T15:54:51.689Z,97018.55
2023-04-23T15:57:20.473Z,97009.45
2023-04-23T15:59:49.877Z,97000.74
2023-04-23T16:02:18.715Z,96999.31
2023-04-23T16:04:48.177Z,96995.50
2023-04-23T16:07:17.469Z,96995.54
2023-04-23T16:09:46.362Z,97000.22
2023-04-23T16:12:15.044Z,97012.45
2023-04-23T16:14:43.835Z,97032.34
2023-04-23T16:17:12.576Z,97049.65
2023-04-23T16:19:41.758Z,97047.23
2023-04-23T16:22:10.908Z,97052.95
2023-04-23T16:24:39.699Z,97057.48
2023-04-23T16:27:11.047Z,97052.16
2023-04-23T16:29:41.008Z,97049.08
2023-04-23T16:32:09.872Z,97044.14
2023-04-23T16:34:38.745Z,97048.60
2023-04-23T16:37:07.632Z,97048.07
2023-04-23T16:39:36.115Z,97058.45
2023-04-23T16:42:05.244Z,97055.86
2023-04-23T16:44:34.406Z,97053.45
2023-04-23T16:47:03.510Z,97055.60
2023-04-23T16:49:32.409Z,97052.79
2023-04-23T16:52:02.420Z,97050.86
2023-04-23T16:54:32.422Z,97050.02
2023-04-23T16:57:02.034Z,97046.45
2023-04-23T16:59:30.920Z,97047.98
2023-04-23T17:01:59.590Z,97043.54
2023-04-23T17:04:28.768Z,97043.41
2023-04-23T17:06:57.794Z,97037.10
2023-04-23T17:09:27.305Z,97036.67
2023-04-23T17:11:56.921Z,97036.40
2023-04-23T17:14:25.842Z,97037.29
2023-04-23T17:16:54.708Z,97036.86
2023-04-23T17:19:23.284Z,97035.93
2023-04-23T17:21:52.490Z,97040.05
2023-04-23T17:24:21.099Z,97037.85
2023-04-23T17:26:49.669Z,97040.36
2023-04-23T17:29:18.341Z,97046.00
2023-04-23T17:31:47.021Z,97048.64
2023-04-23T17:34:16.002Z,97049.92
2023-04-23T17:36:44.701Z,97055.84
2023-04-23T17:39:23.917Z,97052.83
2023-04-23T17:41:53.996Z,97053.70
2023-04-23T17:44:22.432Z,97054.83
2023-04-23T17:46:52.644Z,97050.63
2023-04-23T17:49:22.649Z,97051.95
2023-04-23T17:51:51.133Z,97057.42
2023-04-23T17:54:19.822Z,97057.88
2023-04-23T17:56:48.516Z,97059.98
2023-04-23T17:59:17.602Z,97063.45
2023-04-23T18:01:46.330Z,97063.34
2023-04-23T18:04:17.276Z,97061.59
2023-04-23T18:06:46.320Z,97062.73
2023-04-23T18:09:15.004Z,97063.77
2023-04-23T18:11:44.004Z,97062.48
2023-04-23T18:14:12.729Z,97065.81
2023-04-23T18:16:41.290Z,97072.09
2023-04-23T18:19:10.876Z,97069.90
2023-04-23T18:21:40.892Z,97077.09
2023-04-23T18:24:09.574Z,97079.02
2023-04-23T18:26:38.268Z,97073.85
2023-04-23T18:29:06.947Z,97075.88
2023-04-23T18:31:37.884Z,97079.77
2023-04-23T18:34:10.495Z,97083.86
2023-04-23T18:36:43.344Z,97086.08
2023-04-23T18:39:12.242Z,97085.33
2023-04-23T18:41:40.717Z,97086.27
2023-04-23T18:44:10.952Z,97083.55
2023-04-23T18:46:40.668Z,97082.23
2023-04-23T18:49:30.635Z,97081.14
2023-04-23T18:51:59.476Z,97082.17
2023-04-23T18:54:28.009Z,97081.77
2023-04-23T18:56:57.600Z,97080.21
2023-04-23T18:59:26.603Z,97080.55
2023-04-23T19:01:56.969Z,97084.77
2023-04-23T19:04:26.592Z,97089.54
2023-04-23T19:06:55.328Z,97087.39
2023-04-23T19:09:24.318Z,97083.69
2023-04-23T19:11:53.512Z,97087.56
2023-04-23T19:14:22.515Z,97084.11
2023-04-23T19:16:51.707Z,97087.38
2023-04-23T19:19:20.388Z,97086.09
2023-04-23T19:21:49.115Z,97089.27
2023-04-23T19:24:17.969Z,97089.79
2023-04-23T19:26:46.654Z,97089.57
2023-04-23T19:29:15.448Z,97089.06
2023-04-23T19:31:44.176Z,97087.89
2023-04-23T19:34:13.729Z,97091.02
2023-04-23T19:36:42.520Z,97093.57
2023-04-23T19:39:11.217Z,97092.95
2023-04-23T19:41:40.010Z,97096.41
2023-04-23T19:44:10.472Z,97094.10
2023-04-23T19:46:39.135Z,97093.88
2023-04-23T19:49:07.723Z,97093.52
2023-04-23T19:51:38.395Z,97089.44
2023-04-23T19:54:08.544Z,97085.34
2023-04-23T19:56:37.847Z,97085.02
2023-04-23T19:59:10.038Z,97084.55
2023-04-23T20:01:38.809Z,97083.77
2023-04-23T20:04:07.868Z,97082.46
2023-04-23T20:06:36.999Z,97078.86
2023-04-23T20:09:08.756Z,97081.08
2023-04-23T20:11:37.562Z,97084.77
2023-04-23T20:14:06.690Z,97089.59
2023-04-23T20:16:35.869Z,97096.14
2023-04-23T20:19:05.844Z,97097.02
2023-04-23T20:21:35.044Z,97100.23
2023-04-23T20:24:06.518Z,97096.67
2023-04-23T20:26:36.744Z,97097.70
2023-04-23T20:29:05.728Z,97099.98
2023-04-23T20:31:35.548Z,97093.16
2023-04-23T20:34:04.305Z,97091.69
2023-04-23T20:36:33.648Z,97087.05
2023-04-23T20:39:06.193Z,97087.27
2023-04-23T20:41:36.915Z,97086.26
2023-04-23T20:44:05.827Z,97088.94
2023-04-23T20:46:34.576Z,97087.73
2023-04-23T20:49:03.906Z,97086.05
2023-04-23T20:51:35.452Z,97081.14
2023-04-23T20:54:05.430Z,97080.52
2023-04-23T20:56:34.153Z,97077.23
2023-04-23T20:59:03.565Z,97076.45
2023-04-23T21:01:32.562Z,97074.00
2023-04-23T21:04:02.284Z,97071.70
2023-04-23T21:06:31.783Z,97072.05
2023-04-23T21:09:00.964Z,97072.04
2023-04-23T21:11:29.853Z,97072.63
2023-04-23T21:14:00.927Z,97077.11
2023-04-23T21:16:30.077Z,97077.79
2023-04-23T21:18:58.985Z,97078.51
2023-04-23T21:21:30.045Z,97076.09
2023-04-23T21:24:01.291Z,97077.62
2023-04-23T21:26:31.246Z,97075.21
2023-04-23T21:29:00.096Z,97070.52
2023-04-23T21:31:46.510Z,97068.54
2023-04-23T21:34:15.884Z,97073.40
2023-04-23T21:36:44.966Z,97068.39
2023-04-23T21:39:14.189Z,97067.77
2023-04-23T21:41:45.321Z,97064.79
2023-04-23T21:44:15.230Z,97059.17
2023-04-23T21:46:45.313Z,97058.16
2023-04-23T21:49:14.635Z,97060.08
2023-04-23T21:51:45.871Z,97059.81
2023-04-23T21:54:14.775Z,97061.15
2023-04-23T21:56:44.080Z,97061.52
2023-04-23T21:59:13.486Z,97062.05
2023-04-23T22:01:42.824Z,97052.76
2023-04-23T22:04:13.719Z,97046.64
2023-04-23T22:06:44.709Z,97044.91
2023-04-23T22:09:13.865Z,97039.05
2023-04-23T22:11:46.346Z,97038.61
2023-04-23T22:14:25.648Z,97038.52
2023-04-23T22:16:56.176Z,97038.67
2023-04-23T22:19:26.721Z,97038.63
2023-04-23T22:21:56.249Z,97043.02
2023-04-23T22:24:26.085Z,97039.58
2023-04-23T22:26:56.163Z,97041.29
2023-04-23T22:29:25.598Z,97039.23
2023-04-23T22:31:55.398Z,97035.60
2023-04-23T22:34:26.235Z,97030.19
2023-04-23T22:36:55.430Z,97032.32
2023-04-23T22:39:25.421Z,97030.82
2023-04-23T22:41:55.047Z,97027.48
2023-04-23T22:44:23.870Z,97022.98
2023-04-23T22:46:54.522Z,97025.52
2023-04-23T22:49:24.981Z,97024.42
2023-04-23T22:51:54.307Z,97017.73
2023-04-23T22:54:23.987Z,97015.95
2023-04-23T22:56:53.824Z,97012.80
2023-04-23T22:59:23.948Z,97006.96
2023-04-23T23:01:53.267Z,97008.08
2023-04-23T23:04:23.590Z,97005.15
2023-04-23T23:06:53.883Z,97003.34
2023-04-23T23:09:23.810Z,97011.98
2023-04-23T23:11:54.080Z,97011.48
2023-04-23T23:14:23.514Z,97008.29
2023-04-23T23:16:53.682Z,97005.12
2023-04-23T23:19:27.198Z,97004.74
2023-04-23T23:21:57.822Z,97000.23
2023-04-23T23:24:27.614Z,96995.45
2023-04-23T23:26:57.829Z,96992.75
2023-04-23T23:29:28.559Z,96989.77
2023-04-23T23:31:59.073Z,96988.08
2023-04-23T23:34:28.688Z,96988.77
2023-04-23T23:36:58.661Z,96981.64
2023-04-23T23:39:30.278Z,96976.02
2023-04-23T23:42:02.254Z,96973.15
2023-04-23T23:44:34.058Z,96970.96
2023-04-23T23:47:05.756Z,96962.49
2023-04-23T23:49:37.329Z,96961.80
2023-04-23T23:52:07.853Z,96959.60
2023-04-23T23:54:38.678Z,96954.89
2023-04-23T23:57:10.395Z,96951.69
2023-04-23T23:59:41.118Z,96949.98
